createdAt,value
2023-03-28T00:02:09.467Z,10.00
2023-03-28T00:04:37.328Z,9.48
2023-03-28T00:07:05.483Z,6.18
2023-03-28T00:09:32.900Z,5.95
2023-03-28T00:11:59.753Z,5.97
2023-03-28T00:14:26.603Z,5.85
2023-03-28T00:16:53.365Z,6.13
2023-03-28T00:19:20.851Z,6.40
2023-03-28T00:21:51.077Z,5.47
2023-03-28T00:24:21.622Z,9.52
2023-03-28T00:26:54.676Z,5.28
2023-03-28T00:29:22.957Z,6.57
2023-03-28T00:31:50.317Z,4.95
2023-03-28T00:34:17.849Z,8.05
2023-03-28T00:36:44.825Z,4.57
2023-03-28T00:39:11.599Z,4.45
2023-03-28T00:41:41.571Z,4.63
2023-03-28T00:44:42.270Z,7.68
2023-03-28T00:47:20.672Z,7.45
2023-03-28T00:49:52.983Z,5.68
2023-03-28T00:52:26.625Z,5.82
2023-03-28T00:54:54.021Z,8.00
2023-03-28T00:57:20.940Z,6.95
2023-03-28T00:59:47.744Z,7.60
2023-03-28T01:04:59.503Z,5.75
2023-03-28T01:07:35.198Z,6.75
2023-03-28T01:10:04.468Z,7.28
2023-03-28T01:12:33.192Z,7.60
2023-03-28T01:15:01.757Z,5.00
2023-03-28T01:17:30.743Z,7.80
2023-03-28T01:20:04.137Z,8.95
2023-03-28T01:22:56.777Z,6.57
2023-03-28T01:25:50.041Z,6.43
2023-03-28T01:28:32.631Z,6.78
2023-03-28T01:31:16.917Z,6.03
2023-03-28T01:34:14.750Z,7.90
2023-03-28T01:36:57.119Z,4.93
2023-03-28T01:39:45.263Z,12.02
2023-03-28T01:42:32.074Z,7.10
2023-03-28T01:45:08.078Z,7.28
2023-03-28T01:47:41.332Z,12.18
2023-03-28T01:50:21.030Z,19.75
2023-03-28T01:53:22.999Z,7.50
2023-03-28T01:55:58.743Z,17.40
2023-03-28T01:58:42.347Z,10.95
2023-03-28T02:01:24.602Z,8.45
2023-03-28T02:03:58.109Z,9.48
2023-03-28T02:06:28.083Z,6.40
2023-03-28T02:08:56.468Z,11.25
2023-03-28T02:11:26.230Z,7.55
2023-03-28T02:14:01.415Z,8.85
2023-03-28T02:16:31.875Z,10.00
2023-03-28T02:18:59.858Z,11.32
2023-03-28T02:21:53.710Z,9.93
2023-03-28T02:24:20.992Z,15.30
2023-03-28T02:26:47.942Z,7.75
2023-03-28T02:29:16.699Z,8.98
2023-03-28T02:31:43.543Z,12.80
2023-03-28T02:34:11.155Z,11.57
2023-03-28T02:36:57.448Z,14.25
2023-03-28T02:39:35.426Z,8.70
2023-03-28T02:42:29.860Z,11.07
2023-03-28T02:45:16.026Z,8.05
2023-03-28T02:48:03.066Z,9.80
2023-03-28T02:50:57.503Z,4.45
2023-03-28T02:53:33.396Z,10.93
2023-03-28T02:56:21.908Z,8.60
2023-03-28T02:58:55.447Z,6.75
2023-03-28T03:01:29.325Z,5.28
2023-03-28T03:03:58.291Z,5.75
2023-03-28T03:06:25.516Z,5.18
2023-03-28T03:08:52.261Z,8.98
2023-03-28T03:11:19.109Z,6.75
2023-03-28T03:13:45.896Z,5.43
2023-03-28T03:16:12.812Z,4.75
2023-03-28T03:18:39.633Z,9.15
2023-03-28T03:21:06.735Z,4.72
2023-03-28T03:23:33.515Z,7.93
2023-03-28T03:26:00.747Z,8.48
2023-03-28T03:28:27.669Z,6.43
2023-03-28T03:30:54.361Z,12.75
2023-03-28T03:33:21.344Z,6.68
2023-03-28T03:35:48.131Z,5.63
2023-03-28T03:38:14.930Z,10.85
2023-03-28T03:40:41.764Z,6.10
2023-03-28T03:43:08.548Z,10.60
2023-03-28T03:45:35.575Z,7.28
2023-03-28T03:48:02.402Z,8.85
2023-03-28T03:50:29.367Z,5.28
2023-03-28T03:52:58.031Z,5.00
2023-03-28T03:55:26.589Z,3.42
2023-03-28T03:57:53.323Z,7.25
2023-03-28T04:00:20.275Z,5.50
2023-03-28T04:02:47.973Z,2.90
2023-03-28T04:05:14.991Z,7.18
2023-03-28T04:07:42.254Z,4.10
2023-03-28T04:10:09.459Z,7.13
2023-03-28T04:12:36.240Z,7.68
2023-03-28T04:15:03.329Z,5.60
2023-03-28T04:17:34.729Z,5.03
2023-03-28T04:20:12.291Z,10.43
2023-03-28T04:22:44.905Z,15.77
2023-03-28T04:25:14.046Z,9.85
2023-03-28T04:27:47.355Z,10.20
2023-03-28T04:30:17.654Z,13.25
2023-03-28T04:32:45.001Z,14.10
2023-03-28T04:35:12.364Z,15.48
2023-03-28T04:37:39.111Z,10.43
2023-03-28T04:40:10.806Z,8.13
2023-03-28T04:42:40.925Z,14.82
2023-03-28T04:45:08.854Z,6.63
2023-03-28T04:47:37.628Z,14.10
2023-03-28T04:50:04.862Z,7.18
2023-03-28T04:52:31.684Z,16.30
2023-03-28T04:54:58.461Z,7.43
2023-03-28T04:57:25.570Z,12.45
2023-03-28T04:59:52.343Z,9.43
2023-03-28T05:02:19.081Z,9.10
2023-03-28T05:04:45.814Z,12.60
2023-03-28T05:07:12.543Z,13.20
2023-03-28T05:09:39.269Z,14.13
2023-03-28T05:12:06.249Z,10.10
2023-03-28T05:14:33.517Z,10.93
2023-03-28T05:17:00.285Z,16.88
2023-03-28T05:19:27.091Z,9.55
2023-03-28T05:21:53.845Z,17.25
2023-03-28T05:24:20.786Z,12.95
2023-03-28T05:26:47.561Z,12.80
2023-03-28T05:29:14.302Z,10.70
2023-03-28T05:31:41.095Z,38.13
2023-03-28T05:34:07.887Z,29.38
2023-03-28T05:36:34.644Z,22.15
2023-03-28T05:39:01.425Z,18.90
2023-03-28T05:41:28.219Z,17.50
2023-03-28T05:43:54.932Z,11.48
2023-03-28T05:46:21.729Z,15.05
2023-03-28T05:48:49.392Z,16.77
2023-03-28T05:51:17.077Z,11.02
2023-03-28T05:53:43.934Z,14.95
2023-03-28T05:56:10.950Z,14.48
2023-03-28T05:58:37.676Z,12.80
2023-03-28T06:01:04.592Z,16.92
2023-03-28T06:03:32.496Z,16.17
2023-03-28T06:06:00.075Z,11.57
2023-03-28T06:08:27.406Z,17.88
2023-03-28T06:10:54.130Z,14.40
2023-03-28T06:13:21.493Z,12.38
2023-03-28T06:15:48.270Z,16.13
2023-03-28T06:18:15.046Z,14.15
2023-03-28T06:20:41.849Z,19.05
2023-03-28T06:23:08.560Z,18.55
2023-03-28T06:25:35.331Z,13.35
2023-03-28T06:28:02.202Z,12.45
2023-03-28T06:30:28.944Z,13.00
2023-03-28T06:32:55.762Z,15.00
2023-03-28T06:35:22.555Z,18.08
2023-03-28T06:37:49.330Z,13.65
2023-03-28T06:40:16.136Z,22.30
2023-03-28T06:42:43.280Z,8.45
2023-03-28T06:45:10.455Z,15.20
2023-03-28T06:47:37.214Z,12.25
2023-03-28T06:50:04.420Z,13.20
2023-03-28T06:52:31.172Z,20.40
2023-03-28T06:54:59.061Z,11.75
2023-03-28T06:57:26.097Z,7.90
2023-03-28T06:59:52.897Z,13.00
2023-03-28T07:02:19.673Z,7.65
2023-03-28T07:04:46.480Z,17.92
2023-03-28T07:07:13.259Z,19.40
2023-03-28T07:09:39.990Z,13.27
2023-03-28T07:12:07.163Z,8.60
2023-03-28T07:14:34.132Z,10.23
2023-03-28T07:17:01.222Z,9.60
2023-03-28T07:19:28.086Z,9.85
2023-03-28T07:21:54.846Z,8.13
2023-03-28T07:24:21.580Z,16.15
2023-03-28T07:26:48.279Z,11.82
2023-03-28T07:29:14.998Z,8.13
2023-03-28T07:31:43.032Z,6.65
2023-03-28T07:34:09.972Z,7.63
2023-03-28T07:36:38.403Z,6.20
2023-03-28T07:39:05.713Z,7.43
2023-03-28T07:41:32.501Z,9.88
2023-03-28T07:43:59.484Z,7.05
2023-03-28T07:46:26.398Z,9.75
2023-03-28T07:48:54.953Z,12.52
2023-03-28T07:51:21.892Z,9.02
2023-03-28T07:53:48.689Z,13.52
2023-03-28T07:56:15.496Z,9.48
2023-03-28T07:58:42.460Z,6.38
2023-03-28T08:01:12.570Z,5.78
2023-03-28T08:03:40.479Z,4.57
2023-03-28T08:06:17.033Z,8.85
2023-03-28T08:08:52.014Z,7.38
2023-03-28T08:11:18.779Z,8.25
2023-03-28T08:13:45.534Z,14.13
2023-03-28T08:16:12.397Z,4.78
2023-03-28T08:18:39.270Z,11.38
2023-03-28T08:21:06.374Z,10.13
2023-03-28T08:23:33.115Z,8.75
2023-03-28T08:26:05.109Z,8.93
2023-03-28T08:28:35.961Z,11.68
2023-03-28T08:31:10.653Z,5.88
2023-03-28T08:33:37.859Z,5.05
2023-03-28T08:36:04.804Z,10.13
2023-03-28T08:38:31.623Z,9.20
2023-03-28T08:41:18.039Z,4.50
2023-03-28T08:43:51.450Z,10.55
2023-03-28T08:46:21.856Z,6.65
2023-03-28T08:48:51.946Z,8.75
2023-03-28T08:51:21.388Z,3.58
2023-03-28T08:54:00.877Z,4.05
2023-03-28T08:56:28.632Z,13.27
2023-03-28T08:59:08.438Z,8.82
2023-03-28T09:01:35.735Z,7.88
2023-03-28T09:04:03.751Z,3.28
2023-03-28T09:06:40.077Z,8.13
2023-03-28T09:09:39.197Z,10.77
2023-03-28T09:12:17.747Z,5.72
2023-03-28T09:14:59.769Z,6.07
2023-03-28T09:17:34.860Z,5.10
2023-03-28T09:20:20.404Z,8.03
2023-03-28T09:23:20.965Z,11.73
2023-03-28T09:26:06.521Z,7.20
2023-03-28T09:28:41.505Z,7.25
2023-03-28T09:31:11.693Z,6.60
2023-03-28T09:33:42.946Z,4.88
2023-03-28T09:36:21.849Z,6.13
2023-03-28T09:38:54.841Z,8.33
2023-03-28T09:41:42.095Z,9.33
2023-03-28T09:44:14.922Z,4.60
2023-03-28T09:46:48.713Z,5.27
2023-03-28T09:49:19.223Z,6.80
2023-03-28T09:51:46.925Z,7.03
2023-03-28T09:54:14.338Z,9.37
2023-03-28T09:56:47.000Z,4.73
2023-03-28T09:59:29.189Z,4.37
2023-03-28T10:01:58.879Z,3.00
2023-03-28T10:04:28.806Z,5.13
2023-03-28T10:07:19.637Z,7.70
2023-03-28T10:10:16.622Z,4.90
2023-03-28T10:12:48.994Z,3.57
2023-03-28T10:15:41.421Z,7.53
2023-03-28T10:18:15.398Z,3.80
2023-03-28T10:20:42.297Z,3.93
2023-03-28T10:23:13.323Z,7.60
2023-03-28T10:25:43.013Z,8.43
2023-03-28T10:28:17.666Z,4.40
2023-03-28T10:30:52.122Z,6.93
2023-03-28T10:33:20.958Z,3.43
2023-03-28T10:36:09.768Z,5.63
2023-03-28T10:38:48.775Z,5.17
2023-03-28T10:41:25.984Z,2.50
2023-03-28T10:43:53.962Z,4.10
2023-03-28T10:46:30.786Z,5.33
2023-03-28T10:49:17.009Z,3.03
2023-03-28T10:51:44.284Z,3.20
2023-03-28T10:54:19.199Z,3.53
2023-03-28T10:57:16.197Z,3.20
2023-03-28T11:00:07.323Z,6.70
2023-03-28T11:02:53.670Z,1.83
2023-03-28T11:05:35.486Z,9.40
2023-03-28T11:08:02.201Z,6.63
2023-03-28T11:10:37.620Z,5.63
2023-03-28T11:13:26.610Z,5.27
2023-03-28T11:15:56.313Z,2.87
2023-03-28T11:18:56.033Z,5.30
2023-03-28T11:21:54.302Z,6.10
2023-03-28T11:24:41.662Z,4.30
2023-03-28T11:27:28.642Z,12.50
2023-03-28T11:30:19.179Z,4.37
2023-03-28T11:32:49.963Z,6.83
2023-03-28T11:35:34.597Z,8.90
2023-03-28T11:38:14.441Z,4.10
2023-03-28T11:40:56.232Z,4.50
2023-03-28T11:43:38.651Z,4.50
2023-03-28T11:46:13.009Z,2.13
2023-03-28T11:49:00.940Z,8.80
2023-03-28T11:51:45.878Z,3.10
2023-03-28T11:54:19.042Z,3.77
2023-03-28T11:57:12.708Z,3.40
2023-03-28T11:59:48.339Z,4.23
2023-03-28T12:02:30.640Z,5.90
2023-03-28T12:05:03.090Z,7.67
2023-03-28T12:07:59.595Z,2.40
2023-03-28T12:10:38.163Z,6.20
2023-03-28T12:13:44.437Z,6.83
2023-03-28T12:16:20.958Z,2.60
2023-03-28T12:18:58.666Z,5.67
2023-03-28T12:21:31.010Z,10.23
2023-03-28T12:24:16.650Z,2.30
2023-03-28T12:27:04.777Z,5.00
2023-03-28T12:29:49.624Z,8.10
2023-03-28T12:32:35.108Z,6.60
2023-03-28T12:35:28.124Z,2.87
2023-03-28T12:38:01.543Z,8.53
2023-03-28T12:40:52.040Z,4.30
2023-03-28T12:43:30.566Z,6.00
2023-03-28T12:46:02.203Z,4.70
2023-03-28T12:48:42.569Z,2.53
2023-03-28T12:51:14.930Z,2.80
2023-03-28T12:54:09.227Z,2.63
2023-03-28T12:56:36.261Z,4.27
2023-03-28T12:59:35.378Z,3.40
2023-03-28T13:02:23.330Z,7.83
2023-03-28T13:05:19.810Z,3.73
2023-03-28T13:08:06.470Z,4.17
2023-03-28T13:10:42.730Z,4.10
2023-03-28T13:13:19.584Z,1.77
2023-03-28T13:15:56.581Z,4.87
2023-03-28T13:18:29.870Z,2.83
2023-03-28T13:20:57.664Z,2.57
2023-03-28T13:23:37.173Z,2.87
2023-03-28T13:26:08.224Z,5.30
2023-03-28T13:28:46.583Z,3.50
2023-03-28T13:31:20.832Z,5.37
2023-03-28T13:33:59.726Z,9.07
2023-03-28T13:36:29.174Z,2.30
2023-03-28T13:39:08.138Z,3.53
2023-03-28T13:41:41.206Z,5.33
2023-03-28T13:44:18.699Z,2.53
2023-03-28T13:46:48.728Z,2.70
2023-03-28T13:49:21.521Z,5.60
2023-03-28T13:51:59.005Z,7.43
2023-03-28T13:54:28.357Z,5.20
2023-03-28T13:57:05.309Z,5.53
2023-03-28T13:59:36.127Z,5.47
2023-03-28T14:02:15.739Z,4.23
2023-03-28T14:04:51.897Z,4.73
2023-03-28T14:07:27.296Z,5.30
2023-03-28T14:09:56.175Z,8.23
2023-03-28T14:12:25.848Z,4.73
2023-03-28T14:14:58.903Z,8.37
2023-03-28T14:17:29.206Z,4.23
2023-03-28T14:20:01.694Z,5.23
2023-03-28T14:22:30.464Z,5.50
2023-03-28T14:25:05.080Z,2.63
2023-03-28T14:27:48.039Z,3.90
2023-03-28T14:30:18.165Z,5.17
2023-03-28T14:33:07.202Z,3.50
2023-03-28T14:35:35.815Z,2.80
2023-03-28T14:38:05.598Z,3.63
2023-03-28T14:40:39.618Z,3.03
2023-03-28T14:43:07.555Z,10.40
2023-03-28T14:45:37.704Z,9.33
2023-03-28T14:48:08.721Z,3.83
2023-03-28T14:50:38.573Z,2.90
2023-03-28T14:53:09.419Z,5.00
2023-03-28T14:55:37.519Z,5.00
2023-03-28T14:58:06.151Z,2.83
2023-03-28T15:00:42.774Z,3.10
2023-03-28T15:03:16.612Z,4.10
2023-03-28T15:05:49.795Z,2.60
2023-03-28T15:08:37.863Z,4.50
2023-03-28T15:11:09.339Z,4.30
2023-03-28T15:13:41.686Z,6.83
2023-03-28T15:16:09.148Z,3.70
2023-03-28T15:18:44.352Z,4.43
2023-03-28T15:21:11.702Z,3.10
2023-03-28T15:23:51.136Z,2.13
2023-03-28T15:26:30.021Z,2.67
2023-03-28T15:28:58.117Z,1.80
2023-03-28T15:31:26.205Z,6.93
2023-03-28T15:33:54.428Z,3.17
2023-03-28T15:36:29.912Z,5.33
2023-03-28T15:39:21.083Z,2.50
2023-03-28T15:41:49.059Z,4.00
2023-03-28T15:44:27.110Z,3.17
2023-03-28T15:47:06.656Z,5.10
2023-03-28T15:49:37.943Z,3.53
2023-03-28T15:52:24.943Z,2.43
2023-03-28T15:54:54.025Z,4.83
2023-03-28T15:57:24.621Z,2.93
2023-03-28T15:59:51.735Z,5.10
2023-03-28T16:02:20.801Z,5.30
2023-03-28T16:05:09.251Z,6.17
2023-03-28T16:07:48.531Z,5.67
2023-03-28T16:10:21.257Z,7.23
2023-03-28T16:12:51.158Z,3.20
2023-03-28T16:15:18.767Z,5.13
2023-03-28T16:17:47.231Z,8.90
2023-03-28T16:20:20.911Z,8.17
2023-03-28T16:22:48.593Z,7.83
2023-03-28T16:25:15.551Z,3.20
2023-03-28T16:27:42.869Z,5.67
2023-03-28T16:30:38.013Z,6.93
2023-03-28T16:33:06.345Z,5.33
2023-03-28T16:35:34.114Z,4.43
2023-03-28T16:38:01.945Z,4.30
2023-03-28T16:40:29.425Z,4.03
2023-03-28T16:42:56.532Z,6.30
2023-03-28T16:45:23.714Z,3.60
2023-03-28T16:47:50.854Z,7.20
2023-03-28T16:50:17.674Z,3.70
2023-03-28T16:52:44.416Z,10.20
2023-03-28T16:55:16.821Z,3.97
2023-03-28T16:57:43.740Z,4.30
2023-03-28T17:00:16.069Z,3.60
2023-03-28T17:02:43.142Z,5.57
2023-03-28T17:05:10.483Z,2.70
2023-03-28T17:07:37.215Z,4.90
2023-03-28T17:10:04.443Z,6.87
2023-03-28T17:12:31.851Z,3.77
2023-03-28T17:14:58.622Z,4.17
2023-03-28T17:17:25.617Z,7.30
2023-03-28T17:19:52.363Z,7.80
2023-03-28T17:22:19.165Z,11.33
2023-03-28T17:24:46.900Z,11.43
2023-03-28T17:27:14.413Z,7.17
2023-03-28T17:29:41.218Z,4.90
2023-03-28T17:32:08.234Z,10.93
2023-03-28T17:34:36.581Z,5.53
2023-03-28T17:37:04.235Z,3.67
2023-03-28T17:39:31.366Z,5.40
2023-03-28T17:41:58.188Z,4.23
2023-03-28T17:44:25.020Z,3.50
2023-03-28T17:46:52.068Z,6.43
2023-03-28T17:49:19.706Z,4.23
2023-03-28T17:51:46.510Z,4.53
2023-03-28T17:54:13.247Z,4.30
2023-03-28T17:56:40.184Z,8.17
2023-03-28T17:59:07.389Z,7.80
2023-03-28T18:01:34.122Z,8.07
2023-03-28T18:04:01.186Z,4.30
2023-03-28T18:06:28.118Z,4.77
2023-03-28T18:08:54.898Z,4.73
2023-03-28T18:11:22.957Z,6.90
2023-03-28T18:13:52.659Z,5.20
2023-03-28T18:16:19.525Z,5.87
2023-03-28T18:18:46.571Z,6.80
2023-03-28T18:21:13.615Z,4.73
2023-03-28T18:23:40.949Z,3.57
2023-03-28T18:26:08.135Z,5.70
2023-03-28T18:28:36.685Z,11.93
2023-03-28T18:31:14.630Z,11.60
2023-03-28T18:33:42.963Z,13.40
2023-03-28T18:36:11.197Z,15.07
2023-03-28T18:38:43.303Z,11.70
2023-03-28T18:41:12.585Z,13.88
2023-03-28T18:43:41.438Z,14.40
2023-03-28T18:46:09.818Z,18.23
2023-03-28T18:48:36.662Z,24.47
2023-03-28T18:51:06.223Z,19.70
2023-03-28T18:53:33.855Z,16.02
2023-03-28T18:56:01.377Z,10.53
2023-03-28T18:58:28.442Z,7.77
2023-03-28T19:01:00.002Z,6.75
2023-03-28T19:03:28.330Z,6.85
2023-03-28T19:05:56.395Z,7.20
2023-03-28T19:08:26.169Z,6.18
2023-03-28T19:10:58.034Z,5.57
2023-03-28T19:13:25.637Z,5.50
2023-03-28T19:16:06.994Z,8.98
2023-03-28T19:18:37.997Z,6.20
2023-03-28T19:21:05.162Z,5.50
2023-03-28T19:23:32.101Z,5.10
2023-03-28T19:25:58.832Z,5.00
2023-03-28T19:28:25.642Z,3.80
2023-03-28T19:31:03.909Z,3.50
2023-03-28T19:33:30.769Z,4.78
2023-03-28T19:35:57.716Z,5.07
2023-03-28T19:38:26.317Z,6.43
2023-03-28T19:41:15.916Z,5.97
2023-03-28T19:43:43.318Z,6.70
2023-03-28T19:46:18.967Z,5.05
2023-03-28T19:48:46.034Z,5.18
2023-03-28T19:51:14.205Z,4.55
2023-03-28T19:53:41.865Z,7.95
2023-03-28T19:56:11.331Z,7.88
2023-03-28T19:58:38.082Z,7.38
2023-03-28T20:01:04.960Z,11.48
2023-03-28T20:03:31.867Z,22.08
2023-03-28T20:06:04.695Z,6.40
2023-03-28T20:08:31.576Z,6.15
2023-03-28T20:10:58.495Z,7.88
2023-03-28T20:13:25.732Z,8.18
2023-03-28T20:15:52.796Z,5.88
2023-03-28T20:18:20.704Z,7.38
2023-03-28T20:20:59.792Z,5.03
2023-03-28T20:23:28.970Z,7.20
2023-03-28T20:25:57.346Z,4.28
2023-03-28T20:28:24.835Z,5.57
2023-03-28T20:30:53.334Z,7.47
2023-03-28T20:33:20.689Z,3.75
2023-03-28T20:35:55.060Z,4.00
2023-03-28T20:38:21.980Z,8.85
2023-03-28T20:40:49.558Z,6.90
2023-03-28T20:43:26.538Z,12.25
2023-03-28T20:45:55.076Z,8.80
2023-03-28T20:48:35.075Z,10.73
2023-03-28T20:51:05.913Z,9.98
2023-03-28T20:53:34.776Z,11.80
2023-03-28T20:56:05.383Z,10.65
2023-03-28T20:58:33.232Z,7.70
2023-03-28T21:01:01.843Z,9.75
2023-03-28T21:03:39.410Z,11.85
2023-03-28T21:06:08.901Z,14.93
2023-03-28T21:08:38.563Z,10.45
2023-03-28T21:11:05.537Z,7.45
2023-03-28T21:13:32.268Z,5.65
2023-03-28T21:15:58.975Z,7.65
2023-03-28T21:18:26.149Z,8.20
2023-03-28T21:20:52.871Z,5.85
2023-03-28T21:23:19.552Z,7.18
2023-03-28T21:25:47.922Z,5.05
2023-03-28T21:28:14.771Z,6.05
2023-03-28T21:30:41.598Z,8.02
2023-03-28T21:33:08.467Z,6.95
2023-03-28T21:35:38.126Z,5.65
2023-03-28T21:38:04.939Z,3.65
2023-03-28T21:40:31.805Z,7.07
2023-03-28T21:42:58.553Z,3.85
2023-03-28T21:45:25.373Z,5.10
2023-03-28T21:47:52.177Z,6.65
2023-03-28T21:50:18.964Z,14.07
2023-03-28T21:52:45.794Z,7.47
2023-03-28T21:55:12.548Z,6.20
2023-03-28T21:57:39.371Z,11.48
2023-03-28T22:00:14.824Z,11.48
2023-03-28T22:02:43.094Z,6.70
2023-03-28T22:05:21.977Z,6.30
2023-03-28T22:07:53.385Z,10.15
2023-03-28T22:10:21.317Z,13.95
2023-03-28T22:12:48.124Z,11.18
2023-03-28T22:15:15.069Z,13.32
2023-03-28T22:17:43.013Z,11.95
2023-03-28T22:20:12.165Z,9.45
2023-03-28T22:22:42.485Z,11.23
2023-03-28T22:25:10.927Z,6.72
2023-03-28T22:27:38.699Z,7.82
2023-03-28T22:30:09.605Z,4.63
2023-03-28T22:32:38.004Z,6.20
2023-03-28T22:35:05.906Z,8.77
2023-03-28T22:37:33.256Z,8.13
2023-03-28T22:40:00.436Z,7.25
2023-03-28T22:42:27.600Z,7.40
2023-03-28T22:44:54.388Z,7.47
2023-03-28T22:47:21.226Z,8.65
2023-03-28T22:49:47.990Z,9.32
2023-03-28T22:52:14.775Z,7.18
2023-03-28T22:54:42.685Z,10.80
2023-03-28T22:57:09.673Z,10.20
2023-03-28T22:59:36.567Z,13.90
2023-03-28T23:02:03.888Z,16.38
2023-03-28T23:04:33.040Z,14.85
2023-03-28T23:06:59.810Z,17.60
2023-03-28T23:09:27.939Z,18.55
2023-03-28T23:11:55.096Z,12.50
2023-03-28T23:14:22.251Z,8.70
2023-03-28T23:16:50.097Z,8.82
2023-03-28T23:19:16.866Z,6.97
2023-03-28T23:21:43.966Z,7.00
2023-03-28T23:24:11.834Z,10.63
2023-03-28T23:26:38.555Z,8.25
2023-03-28T23:29:05.338Z,7.95
2023-03-28T23:31:32.096Z,10.73
2023-03-28T23:33:58.998Z,9.13
2023-03-28T23:36:25.933Z,9.05
2023-03-28T23:38:53.073Z,5.07
2023-03-28T23:41:19.891Z,4.15
2023-03-28T23:43:46.707Z,5.25
2023-03-28T23:46:14.235Z,2.90
2023-03-28T23:48:41.508Z,4.38
2023-03-28T23:51:09.022Z,3.00
2023-03-28T23:53:36.302Z,2.95
2023-03-28T23:56:03.617Z,7.40
2023-03-28T23:58:30.319Z,2.65
